<?xml version="1.0" encoding="UTF-8" standalone="no" ?><gpx xmlns="http://www.topografix.com/GPX/1/1" xmlns:gpxx="http://www.garmin.com/xmlschemas/GpxExtensions/v3" xmlns:wptx1="http://www.garmin.com/xmlschemas/WaypointExtension/v1" xmlns:gpxtpx="http://www.garmin.com/xmlschemas/TrackPointExtension/v1" creator="Alpha 100 EMEA/APAC" version="1.1" xmlns:xsi="http://www.w3.org/2001/XMLSchema-instance" xsi:schemaLocation="http://www.topografix.com/GPX/1/1 http://www.topografix.com/GPX/1/1/gpx.xsd http://www.garmin.com/xmlschemas/GpxExtensions/v3 http://www8.garmin.com/xmlschemas/GpxExtensionsv3.xsd http://www.garmin.com/xmlschemas/WaypointExtension/v1 http://www8.garmin.com/xmlschemas/WaypointExtensionv1.xsd http://www.garmin.com/xmlschemas/TrackPointExtension/v1 http://www.garmin.com/xmlschemas/TrackPointExtensionv1.xsd"><metadata><link href="http://www.garmin.com"><text>Garmin International</text></link><time>2026-09-01T17:05:01Z</time></metadata><trk><name>2026-09-01 20:04:59</name><extensions><gpxx:TrackExtension><gpxx:DisplayColor>Cyan</gpxx:DisplayColor></gpxx:TrackExtension></extensions><trkseg><trkpt lat="59.7929935064" lon="28.9293499757"><ele>13.12</ele><time>2026-09-01T15:20:23Z</time></trkpt><trkpt lat="59.7929940931" lon="28.9293456171"><ele>13.12</ele><time>2026-09-01T15:20:30Z</time></trkpt><trkpt lat="59.7929925844" lon="28.9293543343"><ele>13.12</ele><time>2026-09-01T15:20:42Z</time></trkpt><trkpt lat="59.7929930035" lon="28.9293539990"><ele>13.12</ele><time>2026-09-01T15:20:49Z</time></trkpt><trkpt lat="59.7929958533" lon="28.9293501433"><ele>13.12</ele><time>2026-09-01T15:20:56Z</time></trkpt><trkpt lat="59.7929891478" lon="28.9293722715"><ele>13.12</ele><time>2026-09-01T15:21:04Z</time></trkpt><trkpt lat="59.7929903213" lon="28.9293874428"><ele>13.12</ele><time>2026-09-01T15:21:12Z</time></trkpt><trkpt lat="59.7929984517" lon="28.9293524064"><ele>13.12</ele><time>2026-09-01T15:21:20Z</time></trkpt><trkpt lat="59.7929997928" lon="28.9293466229"><ele>13.12</ele><time>2026-09-01T15:21:33Z</time></trkpt><trkpt lat="59.7930021398" lon="28.9293728583"><ele>13.12</ele><time>2026-09-01T15:21:39Z</time></trkpt><trkpt lat="59.7930030618" lon="28.9293822460"><ele>13.12</ele><time>2026-09-01T15:21:45Z</time></trkpt><trkpt lat="59.7930034809" lon="28.9293901250"><ele>13.12</ele><time>2026-09-01T15:22:01Z</time></trkpt><trkpt lat="59.7930042353" lon="28.9293937292"><ele>13.12</ele><time>2026-09-01T15:22:19Z</time></trkpt><trkpt lat="59.7930050734" lon="28.9293925557"><ele>13.12</ele><time>2026-09-01T15:22:35Z</time></trkpt><trkpt lat="59.7929992899" lon="28.9293451142"><ele>13.12</ele><time>2026-09-01T15:22:44Z</time></trkpt><trkpt lat="59.7929939255" lon="28.9293731097"><ele>13.12</ele><time>2026-09-01T15:22:50Z</time></trkpt><trkpt lat="59.7929923330" lon="28.9293778036"><ele>13.12</ele><time>2026-09-01T15:23:01Z</time></trkpt><trkpt lat="59.7929898184" lon="28.9293752052"><ele>13.12</ele><time>2026-09-01T15:23:14Z</time></trkpt><trkpt lat="59.7929976135" lon="28.9293438569"><ele>13.12</ele><time>2026-09-01T15:23:19Z</time></trkpt><trkpt lat="59.7930042353" lon="28.9293388277"><ele>12.15</ele><time>2026-09-01T15:23:30Z</time></trkpt><trkpt lat="59.7930062469" lon="28.9293370675"><ele>12.15</ele><time>2026-09-01T15:23:53Z</time></trkpt><trkpt lat="59.7930063307" lon="28.9293867722"><ele>12.15</ele><time>2026-09-01T15:24:05Z</time></trkpt><trkpt lat="59.7930115275" lon="28.9293483831"><ele>12.15</ele><time>2026-09-01T15:24:11Z</time></trkpt><trkpt lat="59.7930116951" lon="28.9293490537"><ele>12.15</ele><time>2026-09-01T15:24:23Z</time></trkpt><trkpt lat="59.7930132877" lon="28.9293488860"><ele>12.15</ele><time>2026-09-01T15:24:33Z</time></trkpt><trkpt lat="59.7930133715" lon="28.9293450303"><ele>12.15</ele><time>2026-09-01T15:24:50Z</time></trkpt><trkpt lat="59.7930095997" lon="28.9293441083"><ele>12.15</ele><time>2026-09-01T15:25:01Z</time></trkpt><trkpt lat="59.7930068336" lon="28.9293383248"><ele>12.15</ele><time>2026-09-01T15:25:13Z</time></trkpt><trkpt lat="59.7930228431" lon="28.9293308649"><ele>12.15</ele><time>2026-09-01T15:25:24Z</time></trkpt><trkpt lat="59.7930355836" lon="28.9293137658"><ele>12.15</ele><time>2026-09-01T15:25:31Z</time></trkpt><trkpt lat="59.7930367570" lon="28.9293178730"><ele>12.15</ele><time>2026-09-01T15:25:41Z</time></trkpt><trkpt lat="59.7930372600" lon="28.9293144364"><ele>12.15</ele><time>2026-09-01T15:25:49Z</time></trkpt><trkpt lat="59.7930364218" lon="28.9293124247"><ele>13.12</ele><time>2026-09-01T15:25:58Z</time></trkpt><trkpt lat="59.7930376790" lon="28.9293152746"><ele>13.12</ele><time>2026-09-01T15:26:13Z</time></trkpt><trkpt lat="59.7930374276" lon="28.9293159451"><ele>13.12</ele><time>2026-09-01T15:26:30Z</time></trkpt><trkpt lat="59.7930346616" lon="28.9293067250"><ele>13.12</ele><time>2026-09-01T15:26:45Z</time></trkpt><trkpt lat="59.7930336557" lon="28.9292944875"><ele>13.12</ele><time>2026-09-01T15:27:02Z</time></trkpt><trkpt lat="59.7930319794" lon="28.9292912185"><ele>13.12</ele><time>2026-09-01T15:27:13Z</time></trkpt><trkpt lat="59.7930335719" lon="28.9293090720"><ele>14.08</ele><time>2026-09-01T15:27:26Z</time></trkpt><trkpt lat="59.7930323984" lon="28.9293052163"><ele>14.08</ele><time>2026-09-01T15:27:37Z</time></trkpt><trkpt lat="59.7930311412" lon="28.9292988461"><ele>14.08</ele><time>2026-09-01T15:27:49Z</time></trkpt><trkpt lat="59.7930335719" lon="28.9293040428"><ele>14.08</ele><time>2026-09-01T15:28:06Z</time></trkpt><trkpt lat="59.7930340748" lon="28.9293027017"><ele>14.08</ele><time>2026-09-01T15:28:19Z</time></trkpt><trkpt lat="59.7930328175" lon="28.9293034561"><ele>14.08</ele><time>2026-09-01T15:28:33Z</time></trkpt><trkpt lat="59.7930346616" lon="28.9293084852"><ele>14.08</ele><time>2026-09-01T15:28:46Z</time></trkpt><trkpt lat="59.7930374276" lon="28.9293175377"><ele>14.08</ele><time>2026-09-01T15:29:05Z</time></trkpt><trkpt lat="59.7930377629" lon="28.9293191303"><ele>14.08</ele><time>2026-09-01T15:29:17Z</time></trkpt><trkpt lat="59.7930358350" lon="28.9293268416"><ele>14.08</ele><time>2026-09-01T15:29:34Z</time></trkpt><trkpt lat="59.7930347454" lon="28.9293333795"><ele>14.08</ele><time>2026-09-01T15:29:45Z</time></trkpt><trkpt lat="59.7930356674" lon="28.9293240756"><ele>14.08</ele><time>2026-09-01T15:29:59Z</time></trkpt><trkpt lat="59.7930369247" lon="28.9293238241"><ele>14.08</ele><time>2026-09-01T15:30:15Z</time></trkpt><trkpt lat="59.7930380143" lon="28.9293219801"><ele>14.08</ele><time>2026-09-01T15:30:25Z</time></trkpt><trkpt lat="59.7930401098" lon="28.9293195494"><ele>14.08</ele><time>2026-09-01T15:30:33Z</time></trkpt><trkpt lat="59.7930396069" lon="28.9293187950"><ele>14.08</ele><time>2026-09-01T15:30:40Z</time></trkpt><trkpt lat="59.7930399422" lon="28.9293186273"><ele>12.63</ele><time>2026-09-01T15:30:52Z</time></trkpt><trkpt lat="59.7930422891" lon="28.9293203037"><ele>12.63</ele><time>2026-09-01T15:31:11Z</time></trkpt><trkpt lat="59.7930417024" lon="28.9293170348"><ele>12.63</ele><time>2026-09-01T15:31:34Z</time></trkpt><trkpt lat="59.7930417024" lon="28.9293157775"><ele>12.63</ele><time>2026-09-01T15:31:55Z</time></trkpt><trkpt lat="59.7930412833" lon="28.9293117542"><ele>12.63</ele><time>2026-09-01T15:32:22Z</time></trkpt><trkpt lat="59.7930454742" lon="28.9293125924"><ele>12.63</ele><time>2026-09-01T15:32:34Z</time></trkpt><trkpt lat="59.7930490784" lon="28.9293166995"><ele>12.63</ele><time>2026-09-01T15:32:46Z</time></trkpt><trkpt lat="59.7930512577" lon="28.9293080661"><ele>12.63</ele><time>2026-09-01T15:33:04Z</time></trkpt><trkpt lat="59.7930498328" lon="28.9293074794"><ele>12.63</ele><time>2026-09-01T15:33:19Z</time></trkpt><trkpt lat="59.7930497490" lon="28.9293034561"><ele>13.60</ele><time>2026-09-01T15:33:27Z</time></trkpt><trkpt lat="59.7930488270" lon="28.9293038752"><ele>13.60</ele><time>2026-09-01T15:33:35Z</time></trkpt><trkpt lat="59.7930484079" lon="28.9293029532"><ele>13.60</ele><time>2026-09-01T15:33:40Z</time></trkpt><trkpt lat="59.7930513415" lon="28.9293092396"><ele>13.60</ele><time>2026-09-01T15:33:45Z</time></trkpt><trkpt lat="59.7930488270" lon="28.9293150231"><ele>13.60</ele><time>2026-09-01T15:33:51Z</time></trkpt><trkpt lat="59.7930472344" lon="28.9293182082"><ele>14.08</ele><time>2026-09-01T15:34:01Z</time></trkpt><trkpt lat="59.7930449713" lon="28.9293162804"><ele>14.08</ele><time>2026-09-01T15:34:15Z</time></trkpt><trkpt lat="59.7930438817" lon="28.9293136820"><ele>14.08</ele><time>2026-09-01T15:34:32Z</time></trkpt><trkpt lat="59.7930439655" lon="28.9293041267"><ele>14.08</ele><time>2026-09-01T15:34:45Z</time></trkpt><trkpt lat="59.7930427082" lon="28.9293048810"><ele>14.08</ele><time>2026-09-01T15:34:54Z</time></trkpt><trkpt lat="59.7930422053" lon="28.9293045457"><ele>14.08</ele><time>2026-09-01T15:35:07Z</time></trkpt><trkpt lat="59.7930416185" lon="28.9293035399"><ele>13.12</ele><time>2026-09-01T15:35:19Z</time></trkpt><trkpt lat="59.7930379305" lon="28.9292939007"><ele>12.63</ele><time>2026-09-01T15:35:41Z</time></trkpt><trkpt lat="59.7930361703" lon="28.9292896260"><ele>12.63</ele><time>2026-09-01T15:35:56Z</time></trkpt><trkpt lat="59.7930362541" lon="28.9292819984"><ele>12.63</ele><time>2026-09-01T15:36:13Z</time></trkpt><trkpt lat="59.7930361703" lon="28.9292800706"><ele>13.60</ele><time>2026-09-01T15:36:24Z</time></trkpt><trkpt lat="59.7930406127" lon="28.9292779751"><ele>13.60</ele><time>2026-09-01T15:36:37Z</time></trkpt><trkpt lat="59.7930418700" lon="28.9292761311"><ele>13.60</ele><time>2026-09-01T15:36:50Z</time></trkpt><trkpt lat="59.7930415347" lon="28.9292721916"><ele>13.60</ele><time>2026-09-01T15:36:59Z</time></trkpt><trkpt lat="59.7930475697" lon="28.9292731136"><ele>13.60</ele><time>2026-09-01T15:37:13Z</time></trkpt><trkpt lat="59.7930488270" lon="28.9292720240"><ele>13.60</ele><time>2026-09-01T15:37:23Z</time></trkpt><trkpt lat="59.7930468153" lon="28.9292662404"><ele>13.60</ele><time>2026-09-01T15:37:31Z</time></trkpt><trkpt lat="59.7930445522" lon="28.9292628877"><ele>13.60</ele><time>2026-09-01T15:37:42Z</time></trkpt><trkpt lat="59.7930440493" lon="28.9292519074"><ele>13.60</ele><time>2026-09-01T15:37:56Z</time></trkpt><trkpt lat="59.7930445522" lon="28.9292495605"><ele>13.60</ele><time>2026-09-01T15:38:13Z</time></trkpt><trkpt lat="59.7930443007" lon="28.9292436931"><ele>13.60</ele><time>2026-09-01T15:38:31Z</time></trkpt><trkpt lat="59.7930435464" lon="28.9292525779"><ele>13.60</ele><time>2026-09-01T15:38:42Z</time></trkpt><trkpt lat="59.7930418700" lon="28.9292546734"><ele>13.60</ele><time>2026-09-01T15:38:55Z</time></trkpt><trkpt lat="59.7930446360" lon="28.9292457886"><ele>13.60</ele><time>2026-09-01T15:39:11Z</time></trkpt><trkpt lat="59.7930415347" lon="28.9292566013"><ele>13.60</ele><time>2026-09-01T15:39:25Z</time></trkpt><trkpt lat="59.7930428758" lon="28.9292588644"><ele>13.60</ele><time>2026-09-01T15:39:40Z</time></trkpt><trkpt lat="59.7930440493" lon="28.9292591158"><ele>13.60</ele><time>2026-09-01T15:39:58Z</time></trkpt><trkpt lat="59.7930419538" lon="28.9292595349"><ele>13.60</ele><time>2026-09-01T15:40:10Z</time></trkpt><trkpt lat="59.7930436302" lon="28.9292623848"><ele>13.60</ele><time>2026-09-01T15:40:25Z</time></trkpt><trkpt lat="59.7930433787" lon="28.9292623010"><ele>13.60</ele><time>2026-09-01T15:40:34Z</time></trkpt><trkpt lat="59.7930421215" lon="28.9292620495"><ele>13.60</ele><time>2026-09-01T15:40:42Z</time></trkpt><trkpt lat="59.7930426244" lon="28.9291897975"><ele>13.60</ele><time>2026-09-01T15:40:47Z</time></trkpt><trkpt lat="59.7930399422" lon="28.9291675016"><ele>13.60</ele><time>2026-09-01T15:40:48Z</time></trkpt><trkpt lat="59.7930377629" lon="28.9291476365"><ele>13.60</ele><time>2026-09-01T15:40:49Z</time></trkpt><trkpt lat="59.7930352483" lon="28.9291260112"><ele>13.60</ele><time>2026-09-01T15:40:50Z</time></trkpt><trkpt lat="59.7930331528" lon="28.9291032124"><ele>13.60</ele><time>2026-09-01T15:40:51Z</time></trkpt><trkpt lat="59.7930034809" lon="28.9289419446"><ele>13.60</ele><time>2026-09-01T15:40:59Z</time></trkpt><trkpt lat="59.7929672711" lon="28.9287461434"><ele>13.60</ele><time>2026-09-01T15:41:09Z</time></trkpt><trkpt lat="59.7929427121" lon="28.9286400285"><ele>13.60</ele><time>2026-09-01T15:41:17Z</time></trkpt><trkpt lat="59.7929212544" lon="28.9284861367"><ele>13.60</ele><time>2026-09-01T15:41:27Z</time></trkpt><trkpt lat="59.7929023951" lon="28.9283583127"><ele>13.60</ele><time>2026-09-01T15:41:35Z</time></trkpt><trkpt lat="59.7929154709" lon="28.9282081090"><ele>13.60</ele><time>2026-09-01T15:41:44Z</time></trkpt><trkpt lat="59.7929352522" lon="28.9281342644"><ele>13.60</ele><time>2026-09-01T15:41:49Z</time></trkpt><trkpt lat="59.7929779161" lon="28.9280298259"><ele>13.60</ele><time>2026-09-01T15:41:57Z</time></trkpt><trkpt lat="59.7930188198" lon="28.9278947096"><ele>13.60</ele><time>2026-09-01T15:42:06Z</time></trkpt><trkpt lat="59.7930282913" lon="28.9278499503"><ele>13.60</ele><time>2026-09-01T15:42:14Z</time></trkpt><trkpt lat="59.7930236813" lon="28.9279113896"><ele>13.60</ele><time>2026-09-01T15:42:21Z</time></trkpt><trkpt lat="59.7929787543" lon="28.9280175045"><ele>13.60</ele><time>2026-09-01T15:42:30Z</time></trkpt><trkpt lat="59.7929745633" lon="28.9280118048"><ele>13.60</ele><time>2026-09-01T15:42:38Z</time></trkpt><trkpt lat="59.7929821908" lon="28.9280211926"><ele>13.60</ele><time>2026-09-01T15:42:50Z</time></trkpt><trkpt lat="59.7929857112" lon="28.9280215278"><ele>13.60</ele><time>2026-09-01T15:43:06Z</time></trkpt><trkpt lat="59.7929842025" lon="28.9280101284"><ele>13.60</ele><time>2026-09-01T15:43:18Z</time></trkpt><trkpt lat="59.7929828614" lon="28.9280256350"><ele>13.60</ele><time>2026-09-01T15:43:27Z</time></trkpt><trkpt lat="59.7929851245" lon="28.9280243777"><ele>13.60</ele><time>2026-09-01T15:43:41Z</time></trkpt><trkpt lat="59.7929834481" lon="28.9280243777"><ele>13.60</ele><time>2026-09-01T15:43:48Z</time></trkpt><trkpt lat="59.7929716296" lon="28.9280560613"><ele>13.60</ele><time>2026-09-01T15:43:50Z</time></trkpt><trkpt lat="59.7929541115" lon="28.9280967135"><ele>13.60</ele><time>2026-09-01T15:43:52Z</time></trkpt><trkpt lat="59.7928873915" lon="28.9282588195"><ele>13.60</ele><time>2026-09-01T15:44:02Z</time></trkpt><trkpt lat="59.7928778362" lon="28.9282675367"><ele>13.60</ele><time>2026-09-01T15:44:03Z</time></trkpt><trkpt lat="59.7928291373" lon="28.9283016510"><ele>13.60</ele><time>2026-09-01T15:44:09Z</time></trkpt><trkpt lat="59.7927972022" lon="28.9283065964"><ele>13.60</ele><time>2026-09-01T15:44:17Z</time></trkpt><trkpt lat="59.7927871440" lon="28.9283070993"><ele>13.60</ele><time>2026-09-01T15:44:26Z</time></trkpt><trkpt lat="59.7927587293" lon="28.9282944426"><ele>14.08</ele><time>2026-09-01T15:44:35Z</time></trkpt><trkpt lat="59.7927533649" lon="28.9282982983"><ele>14.08</ele><time>2026-09-01T15:44:50Z</time></trkpt><trkpt lat="59.7927503474" lon="28.9282967057"><ele>14.08</ele><time>2026-09-01T15:44:58Z</time></trkpt><trkpt lat="59.7927505989" lon="28.9282926824"><ele>14.08</ele><time>2026-09-01T15:45:11Z</time></trkpt><trkpt lat="59.7927551251" lon="28.9282923471"><ele>14.08</ele><time>2026-09-01T15:45:25Z</time></trkpt><trkpt lat="59.7927579749" lon="28.9283065964"><ele>14.08</ele><time>2026-09-01T15:45:36Z</time></trkpt><trkpt lat="59.7927578073" lon="28.9283035789"><ele>14.08</ele><time>2026-09-01T15:45:48Z</time></trkpt><trkpt lat="59.7927580588" lon="28.9283019025"><ele>14.08</ele><time>2026-09-01T15:45:59Z</time></trkpt><trkpt lat="59.7927615792" lon="28.9283016510"><ele>14.08</ele><time>2026-09-01T15:46:13Z</time></trkpt><trkpt lat="59.7927661892" lon="28.9283119608"><ele>14.08</ele><time>2026-09-01T15:46:22Z</time></trkpt><trkpt lat="59.7927674465" lon="28.9283210970"><ele>14.08</ele><time>2026-09-01T15:46:34Z</time></trkpt><trkpt lat="59.7926876508" lon="28.9283506852"><ele>14.08</ele><time>2026-09-01T15:46:42Z</time></trkpt><trkpt lat="59.7926752456" lon="28.9283475000"><ele>14.08</ele><time>2026-09-01T15:46:43Z</time></trkpt><trkpt lat="59.7926629242" lon="28.9283415489"><ele>14.08</ele><time>2026-09-01T15:46:44Z</time></trkpt><trkpt lat="59.7926490102" lon="28.9283362683"><ele>14.08</ele><time>2026-09-01T15:46:49Z</time></trkpt><trkpt lat="59.7926363535" lon="28.9283615816"><ele>14.08</ele><time>2026-09-01T15:46:58Z</time></trkpt><trkpt lat="59.7926216014" lon="28.9283652697"><ele>14.08</ele><time>2026-09-01T15:47:04Z</time></trkpt><trkpt lat="59.7926114593" lon="28.9283564687"><ele>14.08</ele><time>2026-09-01T15:47:12Z</time></trkpt><trkpt lat="59.7926095314" lon="28.9283494279"><ele>14.08</ele><time>2026-09-01T15:47:21Z</time></trkpt><trkpt lat="59.7926128842" lon="28.9283879008"><ele>14.08</ele><time>2026-09-01T15:47:26Z</time></trkpt><trkpt lat="59.7926012333" lon="28.9284064248"><ele>14.08</ele><time>2026-09-01T15:47:33Z</time></trkpt><trkpt lat="59.7925804462" lon="28.9284484182"><ele>14.08</ele><time>2026-09-01T15:47:43Z</time></trkpt><trkpt lat="59.7925267182" lon="28.9284472447"><ele>14.08</ele><time>2026-09-01T15:47:51Z</time></trkpt><trkpt lat="59.7925149836" lon="28.9284210932"><ele>14.08</ele><time>2026-09-01T15:47:58Z</time></trkpt><trkpt lat="59.7925041709" lon="28.9283847995"><ele>14.08</ele><time>2026-09-01T15:48:04Z</time></trkpt><trkpt lat="59.7924859822" lon="28.9283876494"><ele>14.08</ele><time>2026-09-01T15:48:13Z</time></trkpt><trkpt lat="59.7924553882" lon="28.9284033235"><ele>14.08</ele><time>2026-09-01T15:48:22Z</time></trkpt><trkpt lat="59.7924377024" lon="28.9284526929"><ele>14.08</ele><time>2026-09-01T15:48:29Z</time></trkpt><trkpt lat="59.7924148198" lon="28.9285008051"><ele>14.08</ele><time>2026-09-01T15:48:37Z</time></trkpt><trkpt lat="59.7923879977" lon="28.9285273757"><ele>14.08</ele><time>2026-09-01T15:48:44Z</time></trkpt><trkpt lat="59.7923764307" lon="28.9285443909"><ele>14.08</ele><time>2026-09-01T15:48:53Z</time></trkpt><trkpt lat="59.7923421487" lon="28.9285723865"><ele>14.08</ele><time>2026-09-01T15:49:01Z</time></trkpt><trkpt lat="59.7922827210" lon="28.9285925031"><ele>14.08</ele><time>2026-09-01T15:49:10Z</time></trkpt><trkpt lat="59.7922677174" lon="28.9286052436"><ele>14.08</ele><time>2026-09-01T15:49:19Z</time></trkpt><trkpt lat="59.7922492772" lon="28.9285277110"><ele>14.08</ele><time>2026-09-01T15:49:29Z</time></trkpt><trkpt lat="59.7922344413" lon="28.9284884837"><ele>14.08</ele><time>2026-09-01T15:49:35Z</time></trkpt><trkpt lat="59.7922009137" lon="28.9284506813"><ele>14.08</ele><time>2026-09-01T15:49:43Z</time></trkpt><trkpt lat="59.7921833117" lon="28.9284166507"><ele>14.08</ele><time>2026-09-01T15:49:51Z</time></trkpt><trkpt lat="59.7921793722" lon="28.9284045808"><ele>14.08</ele><time>2026-09-01T15:50:00Z</time></trkpt><trkpt lat="59.7921683080" lon="28.9283595700"><ele>14.08</ele><time>2026-09-01T15:50:08Z</time></trkpt><trkpt lat="59.7921398934" lon="28.9282181673"><ele>14.08</ele><time>2026-09-01T15:50:17Z</time></trkpt><trkpt lat="59.7921521310" lon="28.9280841406"><ele>14.08</ele><time>2026-09-01T15:50:25Z</time></trkpt><trkpt lat="59.7921311762" lon="28.9279257227"><ele>14.08</ele><time>2026-09-01T15:50:34Z</time></trkpt><trkpt lat="59.7921066172" lon="28.9278239664"><ele>14.08</ele><time>2026-09-01T15:50:43Z</time></trkpt><trkpt lat="59.7920752689" lon="28.9276876766"><ele>14.08</ele><time>2026-09-01T15:50:53Z</time></trkpt><trkpt lat="59.7920432501" lon="28.9276149217"><ele>14.08</ele><time>2026-09-01T15:51:01Z</time></trkpt><trkpt lat="59.7920129914" lon="28.9275471121"><ele>14.08</ele><time>2026-09-01T15:51:09Z</time></trkpt><trkpt lat="59.7919721715" lon="28.9274485409"><ele>14.08</ele><time>2026-09-01T15:51:19Z</time></trkpt><trkpt lat="59.7919312678" lon="28.9274332020"><ele>14.56</ele><time>2026-09-01T15:51:27Z</time></trkpt><trkpt lat="59.7919116542" lon="28.9273492992"><ele>14.56</ele><time>2026-09-01T15:51:34Z</time></trkpt><trkpt lat="59.7918748576" lon="28.9272094890"><ele>14.56</ele><time>2026-09-01T15:51:43Z</time></trkpt><trkpt lat="59.7918592673" lon="28.9271168690"><ele>14.56</ele><time>2026-09-01T15:51:50Z</time></trkpt><trkpt lat="59.7918599378" lon="28.9270597883"><ele>14.56</ele><time>2026-09-01T15:51:58Z</time></trkpt><trkpt lat="59.7918513045" lon="28.9269716945"><ele>14.56</ele><time>2026-09-01T15:52:06Z</time></trkpt><trkpt lat="59.7918390669" lon="28.9269017894"><ele>14.56</ele><time>2026-09-01T15:52:14Z</time></trkpt><trkpt lat="59.7918387316" lon="28.9268432837"><ele>14.56</ele><time>2026-09-01T15:52:21Z</time></trkpt><trkpt lat="59.7918400727" lon="28.9267516695"><ele>14.56</ele><time>2026-09-01T15:52:28Z</time></trkpt><trkpt lat="59.7918359656" lon="28.9267137833"><ele>14.56</ele><time>2026-09-01T15:52:35Z</time></trkpt><trkpt lat="59.7918366361" lon="28.9266926609"><ele>14.56</ele><time>2026-09-01T15:52:44Z</time></trkpt><trkpt lat="59.7918290086" lon="28.9266650006"><ele>14.56</ele><time>2026-09-01T15:52:50Z</time></trkpt><trkpt lat="59.7918287572" lon="28.9265743922"><ele>14.56</ele><time>2026-09-01T15:52:56Z</time></trkpt><trkpt lat="59.7917945590" lon="28.9265333209"><ele>14.56</ele><time>2026-09-01T15:53:03Z</time></trkpt><trkpt lat="59.7917913739" lon="28.9265384339"><ele>15.04</ele><time>2026-09-01T15:53:09Z</time></trkpt><trkpt lat="59.7917644680" lon="28.9265608136"><ele>15.04</ele><time>2026-09-01T15:53:17Z</time></trkpt><trkpt lat="59.7917656414" lon="28.9265663456"><ele>15.04</ele><time>2026-09-01T15:53:26Z</time></trkpt><trkpt lat="59.7917596065" lon="28.9265691955"><ele>15.04</ele><time>2026-09-01T15:53:40Z</time></trkpt><trkpt lat="59.7917540744" lon="28.9265816007"><ele>15.04</ele><time>2026-09-01T15:54:02Z</time></trkpt><trkpt lat="59.7917572595" lon="28.9265886415"><ele>15.04</ele><time>2026-09-01T15:54:12Z</time></trkpt><trkpt lat="59.7917576786" lon="28.9265885577"><ele>15.04</ele><time>2026-09-01T15:54:32Z</time></trkpt><trkpt lat="59.7917571757" lon="28.9265922457"><ele>15.04</ele><time>2026-09-01T15:54:45Z</time></trkpt><trkpt lat="59.7917572595" lon="28.9265940897"><ele>15.04</ele><time>2026-09-01T15:54:59Z</time></trkpt><trkpt lat="59.7917589359" lon="28.9265917428"><ele>15.04</ele><time>2026-09-01T15:55:10Z</time></trkpt><trkpt lat="59.7917559184" lon="28.9265929163"><ele>15.04</ele><time>2026-09-01T15:55:18Z</time></trkpt><trkpt lat="59.7917358857" lon="28.9266295452"><ele>15.04</ele><time>2026-09-01T15:55:25Z</time></trkpt><trkpt lat="59.7916751169" lon="28.9267626498"><ele>15.04</ele><time>2026-09-01T15:55:34Z</time></trkpt><trkpt lat="59.7916259989" lon="28.9268853609"><ele>15.04</ele><time>2026-09-01T15:55:43Z</time></trkpt><trkpt lat="59.7915855143" lon="28.9269770589"><ele>15.04</ele><time>2026-09-01T15:55:51Z</time></trkpt><trkpt lat="59.7915465385" lon="28.9271125104"><ele>15.04</ele><time>2026-09-01T15:56:00Z</time></trkpt><trkpt lat="59.7915248293" lon="28.9271813259"><ele>15.04</ele><time>2026-09-01T15:56:06Z</time></trkpt><trkpt lat="59.7915158607" lon="28.9272018615"><ele>15.04</ele><time>2026-09-01T15:56:19Z</time></trkpt><trkpt lat="59.7915211413" lon="28.9272249956"><ele>15.04</ele><time>2026-09-01T15:56:31Z</time></trkpt><trkpt lat="59.7915194649" lon="28.9272308629"><ele>15.04</ele><time>2026-09-01T15:56:45Z</time></trkpt><trkpt lat="59.7915114183" lon="28.9272789750"><ele>15.04</ele><time>2026-09-01T15:56:52Z</time></trkpt><trkpt lat="59.7914800700" lon="28.9273751993"><ele>15.04</ele><time>2026-09-01T15:57:00Z</time></trkpt><trkpt lat="59.7914642282" lon="28.9274358004"><ele>15.04</ele><time>2026-09-01T15:57:06Z</time></trkpt><trkpt lat="59.7914218158" lon="28.9275596011"><ele>15.04</ele><time>2026-09-01T15:57:13Z</time></trkpt><trkpt lat="59.7914121766" lon="28.9276407380"><ele>15.04</ele><time>2026-09-01T15:57:19Z</time></trkpt><trkpt lat="59.7913987655" lon="28.9277220424"><ele>15.04</ele><time>2026-09-01T15:57:25Z</time></trkpt><trkpt lat="59.7913672496" lon="28.9278145786"><ele>15.04</ele><time>2026-09-01T15:57:33Z</time></trkpt><trkpt lat="59.7913464624" lon="28.9278603438"><ele>15.52</ele><time>2026-09-01T15:57:38Z</time></trkpt><trkpt lat="59.7913120966" lon="28.9279873297"><ele>15.52</ele><time>2026-09-01T15:57:46Z</time></trkpt><trkpt lat="59.7912819218" lon="28.9280808717"><ele>15.52</ele><time>2026-09-01T15:57:54Z</time></trkpt><trkpt lat="59.7912676726" lon="28.9281252958"><ele>15.52</ele><time>2026-09-01T15:58:00Z</time></trkpt><trkpt lat="59.7912496515" lon="28.9281494357"><ele>15.52</ele><time>2026-09-01T15:58:04Z</time></trkpt><trkpt lat="59.7911811713" lon="28.9282245375"><ele>15.52</ele><time>2026-09-01T15:58:11Z</time></trkpt><trkpt lat="59.7911752202" lon="28.9282474201"><ele>15.52</ele><time>2026-09-01T15:58:16Z</time></trkpt><trkpt lat="59.7911459673" lon="28.9282952808"><ele>15.52</ele><time>2026-09-01T15:58:23Z</time></trkpt><trkpt lat="59.7910934128" lon="28.9283541217"><ele>15.52</ele><time>2026-09-01T15:58:31Z</time></trkpt><trkpt lat="59.7910845280" lon="28.9283988811"><ele>15.52</ele><time>2026-09-01T15:58:37Z</time></trkpt><trkpt lat="59.7910467256" lon="28.9284555428"><ele>15.52</ele><time>2026-09-01T15:58:44Z</time></trkpt><trkpt lat="59.7909800895" lon="28.9285336621"><ele>15.52</ele><time>2026-09-01T15:58:52Z</time></trkpt><trkpt lat="59.7909192368" lon="28.9286327362"><ele>15.52</ele><time>2026-09-01T15:59:01Z</time></trkpt><trkpt lat="59.7908532713" lon="28.9286971930"><ele>15.52</ele><time>2026-09-01T15:59:09Z</time></trkpt><trkpt lat="59.7908023931" lon="28.9287754800"><ele>15.52</ele><time>2026-09-01T15:59:16Z</time></trkpt><trkpt lat="59.7907591425" lon="28.9288239274"><ele>15.52</ele><time>2026-09-01T15:59:23Z</time></trkpt><trkpt lat="59.7907342482" lon="28.9288917370"><ele>15.52</ele><time>2026-09-01T15:59:29Z</time></trkpt><trkpt lat="59.7907007206" lon="28.9289960917"><ele>15.52</ele><time>2026-09-01T15:59:36Z</time></trkpt><trkpt lat="59.7906702943" lon="28.9290584531"><ele>15.52</ele><time>2026-09-01T15:59:43Z</time></trkpt><trkpt lat="59.7906581406" lon="28.9290953334"><ele>15.52</ele><time>2026-09-01T15:59:51Z</time></trkpt><trkpt lat="59.7906104475" lon="28.9291900489"><ele>15.52</ele><time>2026-09-01T15:59:59Z</time></trkpt><trkpt lat="59.7905613296" lon="28.9292596187"><ele>15.52</ele><time>2026-09-01T16:00:06Z</time></trkpt><trkpt lat="59.7905048355" lon="28.9293296915"><ele>15.52</ele><time>2026-09-01T16:00:14Z</time></trkpt><trkpt lat="59.7904601600" lon="28.9294033684"><ele>15.52</ele><time>2026-09-01T16:00:21Z</time></trkpt><trkpt lat="59.7904339246" lon="28.9294317830"><ele>15.52</ele><time>2026-09-01T16:00:29Z</time></trkpt><trkpt lat="59.7903729044" lon="28.9295337070"><ele>15.52</ele><time>2026-09-01T16:00:38Z</time></trkpt><trkpt lat="59.7903200146" lon="28.9296042826"><ele>15.52</ele><time>2026-09-01T16:00:46Z</time></trkpt><trkpt lat="59.7902871575" lon="28.9296695776"><ele>15.52</ele><time>2026-09-01T16:00:54Z</time></trkpt><trkpt lat="59.7902476788" lon="28.9297452662"><ele>15.52</ele><time>2026-09-01T16:01:01Z</time></trkpt><trkpt lat="59.7902076971" lon="28.9298028499"><ele>15.52</ele><time>2026-09-01T16:01:08Z</time></trkpt><trkpt lat="59.7902063560" lon="28.9298094716"><ele>15.52</ele><time>2026-09-01T16:01:19Z</time></trkpt><trkpt lat="59.7902099602" lon="28.9298254810"><ele>15.52</ele><time>2026-09-01T16:01:36Z</time></trkpt><trkpt lat="59.7901826352" lon="28.9298386406"><ele>15.52</ele><time>2026-09-01T16:01:52Z</time></trkpt><trkpt lat="59.7901279014" lon="28.9299505390"><ele>15.52</ele><time>2026-09-01T16:02:00Z</time></trkpt><trkpt lat="59.7900740895" lon="28.9300516248"><ele>15.52</ele><time>2026-09-01T16:02:06Z</time></trkpt><trkpt lat="59.7900414839" lon="28.9301140700"><ele>15.52</ele><time>2026-09-01T16:02:13Z</time></trkpt><trkpt lat="59.7900246363" lon="28.9302014932"><ele>15.52</ele><time>2026-09-01T16:02:23Z</time></trkpt><trkpt lat="59.7900065314" lon="28.9303271379"><ele>15.52</ele><time>2026-09-01T16:02:31Z</time></trkpt><trkpt lat="59.7899666335" lon="28.9304249547"><ele>15.52</ele><time>2026-09-01T16:02:38Z</time></trkpt><trkpt lat="59.7899497859" lon="28.9305262081"><ele>15.52</ele><time>2026-09-01T16:02:44Z</time></trkpt><trkpt lat="59.7899494506" lon="28.9306106139"><ele>15.52</ele><time>2026-09-01T16:02:51Z</time></trkpt><trkpt lat="59.7899253108" lon="28.9306947682"><ele>15.52</ele><time>2026-09-01T16:02:57Z</time></trkpt><trkpt lat="59.7898827307" lon="28.9308331534"><ele>15.52</ele><time>2026-09-01T16:03:06Z</time></trkpt><trkpt lat="59.7898380551" lon="28.9309263602"><ele>15.52</ele><time>2026-09-01T16:03:15Z</time></trkpt><trkpt lat="59.7898031026" lon="28.9309709519"><ele>15.52</ele><time>2026-09-01T16:03:21Z</time></trkpt><trkpt lat="59.7897570021" lon="28.9310744684"><ele>15.52</ele><time>2026-09-01T16:03:29Z</time></trkpt><trkpt lat="59.7897052020" lon="28.9312058128"><ele>15.52</ele><time>2026-09-01T16:03:38Z</time></trkpt><trkpt lat="59.7896730993" lon="28.9312929846"><ele>15.52</ele><time>2026-09-01T16:03:46Z</time></trkpt><trkpt lat="59.7896249872" lon="28.9314348903"><ele>15.52</ele><time>2026-09-01T16:03:55Z</time></trkpt><trkpt lat="59.7895598598" lon="28.9315240737"><ele>15.52</ele><time>2026-09-01T16:04:02Z</time></trkpt><trkpt lat="59.7895174474" lon="28.9316334575"><ele>15.52</ele><time>2026-09-01T16:04:10Z</time></trkpt><trkpt lat="59.7894772142" lon="28.9317475352"><ele>15.52</ele><time>2026-09-01T16:04:18Z</time></trkpt><trkpt lat="59.7894473746" lon="28.9318869263"><ele>16.00</ele><time>2026-09-01T16:04:26Z</time></trkpt><trkpt lat="59.7894276772" lon="28.9319689013"><ele>16.00</ele><time>2026-09-01T16:04:34Z</time></trkpt><trkpt lat="59.7893941496" lon="28.9320592582"><ele>16.00</ele><time>2026-09-01T16:04:42Z</time></trkpt><trkpt lat="59.7893165331" lon="28.9321514592"><ele>16.00</ele><time>2026-09-01T16:04:51Z</time></trkpt><trkpt lat="59.7892738692" lon="28.9322162513"><ele>16.00</ele><time>2026-09-01T16:05:01Z</time></trkpt><trkpt lat="59.7892053053" lon="28.9323051833"><ele>16.00</ele><time>2026-09-01T16:05:08Z</time></trkpt><trkpt lat="59.7891547624" lon="28.9323833026"><ele>16.00</ele><time>2026-09-01T16:05:15Z</time></trkpt><trkpt lat="59.7891027108" lon="28.9324793592"><ele>16.00</ele><time>2026-09-01T16:05:22Z</time></trkpt><trkpt lat="59.7890512459" lon="28.9325913414"><ele>16.00</ele><time>2026-09-01T16:05:30Z</time></trkpt><trkpt lat="59.7890473902" lon="28.9326190017"><ele>16.00</ele><time>2026-09-01T16:05:40Z</time></trkpt><trkpt lat="59.7890435345" lon="28.9326195884"><ele>16.00</ele><time>2026-09-01T16:05:42Z</time></trkpt><trkpt lat="59.7889976855" lon="28.9326421358"><ele>16.00</ele><time>2026-09-01T16:05:50Z</time></trkpt><trkpt lat="59.7889556084" lon="28.9327925909"><ele>16.00</ele><time>2026-09-01T16:05:58Z</time></trkpt><trkpt lat="59.7889106814" lon="28.9329390228"><ele>16.00</ele><time>2026-09-01T16:06:08Z</time></trkpt><trkpt lat="59.7888828535" lon="28.9330784138"><ele>16.00</ele><time>2026-09-01T16:06:15Z</time></trkpt><trkpt lat="59.7888188995" lon="28.9332110155"><ele>16.00</ele><time>2026-09-01T16:06:25Z</time></trkpt><trkpt lat="59.7887510061" lon="28.9333264343"><ele>16.00</ele><time>2026-09-01T16:06:33Z</time></trkpt><trkpt lat="59.7886944283" lon="28.9333963394"><ele>16.00</ele><time>2026-09-01T16:06:41Z</time></trkpt><trkpt lat="59.7886463162" lon="28.9334519114"><ele>16.00</ele><time>2026-09-01T16:06:47Z</time></trkpt><trkpt lat="59.7886358388" lon="28.9334651548"><ele>16.00</ele><time>2026-09-01T16:06:56Z</time></trkpt><trkpt lat="59.7886287980" lon="28.9334699325"><ele>16.00</ele><time>2026-09-01T16:07:08Z</time></trkpt><trkpt lat="59.7886261996" lon="28.9334743749"><ele>16.00</ele><time>2026-09-01T16:07:24Z</time></trkpt><trkpt lat="59.7886049096" lon="28.9335079025"><ele>16.00</ele><time>2026-09-01T16:07:38Z</time></trkpt><trkpt lat="59.7885847930" lon="28.9335716050"><ele>16.00</ele><time>2026-09-01T16:07:46Z</time></trkpt><trkpt lat="59.7885355912" lon="28.9336777199"><ele>16.00</ele><time>2026-09-01T16:07:54Z</time></trkpt><trkpt lat="59.7885079309" lon="28.9337187912"><ele>16.00</ele><time>2026-09-01T16:08:02Z</time></trkpt><trkpt lat="59.7885117866" lon="28.9337052125"><ele>14.56</ele><time>2026-09-01T16:08:06Z</time></trkpt><trkpt lat="59.7885127086" lon="28.9337176178"><ele>14.56</ele><time>2026-09-01T16:08:12Z</time></trkpt><trkpt lat="59.7884712182" lon="28.9337817393"><ele>14.56</ele><time>2026-09-01T16:08:19Z</time></trkpt><trkpt lat="59.7884656023" lon="28.9337849244"><ele>14.56</ele><time>2026-09-01T16:08:31Z</time></trkpt><trkpt lat="59.7884662729" lon="28.9337804820"><ele>14.56</ele><time>2026-09-01T16:08:42Z</time></trkpt><trkpt lat="59.7884246148" lon="28.9338375628"><ele>14.56</ele><time>2026-09-01T16:08:51Z</time></trkpt><trkpt lat="59.7883905843" lon="28.9339852519"><ele>14.56</ele><time>2026-09-01T16:08:59Z</time></trkpt><trkpt lat="59.7883559670" lon="28.9341311809"><ele>14.56</ele><time>2026-09-01T16:09:07Z</time></trkpt><trkpt lat="59.7882996406" lon="28.9342074562"><ele>14.56</ele><time>2026-09-01T16:09:15Z</time></trkpt><trkpt lat="59.7882568091" lon="28.9342448395"><ele>14.56</ele><time>2026-09-01T16:09:22Z</time></trkpt><trkpt lat="59.7881952859" lon="28.9343298320"><ele>14.56</ele><time>2026-09-01T16:09:30Z</time></trkpt><trkpt lat="59.7881000675" lon="28.9344300795"><ele>14.56</ele><time>2026-09-01T16:09:39Z</time></trkpt><trkpt lat="59.7880183440" lon="28.9345151559"><ele>14.56</ele><time>2026-09-01T16:09:50Z</time></trkpt><trkpt lat="59.7879789490" lon="28.9346273895"><ele>14.56</ele><time>2026-09-01T16:09:58Z</time></trkpt><trkpt lat="59.7879617661" lon="28.9347454906"><ele>14.56</ele><time>2026-09-01T16:10:06Z</time></trkpt><trkpt lat="59.7879560664" lon="28.9348018169"><ele>14.56</ele><time>2026-09-01T16:10:13Z</time></trkpt><trkpt lat="59.7879481036" lon="28.9348294772"><ele>14.56</ele><time>2026-09-01T16:10:19Z</time></trkpt><trkpt lat="59.7879382130" lon="28.9348825347"><ele>14.56</ele><time>2026-09-01T16:10:25Z</time></trkpt><trkpt lat="59.7879289929" lon="28.9349120390"><ele>14.56</ele><time>2026-09-01T16:10:34Z</time></trkpt><trkpt lat="59.7879174259" lon="28.9349302277"><ele>14.56</ele><time>2026-09-01T16:10:41Z</time></trkpt><trkpt lat="59.7879084572" lon="28.9349810220"><ele>14.56</ele><time>2026-09-01T16:10:50Z</time></trkpt><trkpt lat="59.7878939565" lon="28.9349926729"><ele>14.56</ele><time>2026-09-01T16:10:56Z</time></trkpt><trkpt lat="59.7878935374" lon="28.9350035693"><ele>14.56</ele><time>2026-09-01T16:11:05Z</time></trkpt><trkpt lat="59.7878961358" lon="28.9349976182"><ele>14.56</ele><time>2026-09-01T16:11:16Z</time></trkpt><trkpt lat="59.7878735885" lon="28.9350493345"><ele>14.56</ele><time>2026-09-01T16:11:24Z</time></trkpt><trkpt lat="59.7878564056" lon="28.9351368416"><ele>14.56</ele><time>2026-09-01T16:11:31Z</time></trkpt><trkpt lat="59.7878155857" lon="28.9352657553"><ele>16.00</ele><time>2026-09-01T16:11:39Z</time></trkpt><trkpt lat="59.7877598461" lon="28.9353786595"><ele>16.00</ele><time>2026-09-01T16:11:47Z</time></trkpt><trkpt lat="59.7877074592" lon="28.9354461338"><ele>16.00</ele><time>2026-09-01T16:11:55Z</time></trkpt><trkpt lat="59.7876279149" lon="28.9355535060"><ele>16.00</ele><time>2026-09-01T16:12:03Z</time></trkpt><trkpt lat="59.7875644639" lon="28.9356633089"><ele>16.00</ele><time>2026-09-01T16:12:11Z</time></trkpt><trkpt lat="59.7875357140" lon="28.9357262570"><ele>16.00</ele><time>2026-09-01T16:12:18Z</time></trkpt><trkpt lat="59.7874679882" lon="28.9358165301"><ele>16.00</ele><time>2026-09-01T16:12:26Z</time></trkpt><trkpt lat="59.7874384839" lon="28.9358591940"><ele>16.00</ele><time>2026-09-01T16:12:35Z</time></trkpt><trkpt lat="59.7873938084" lon="28.9359127544"><ele>16.00</ele><time>2026-09-01T16:12:42Z</time></trkpt><trkpt lat="59.7873720992" lon="28.9359679911"><ele>16.00</ele><time>2026-09-01T16:12:49Z</time></trkpt><trkpt lat="59.7873393260" lon="28.9360691607"><ele>16.00</ele><time>2026-09-01T16:12:58Z</time></trkpt><trkpt lat="59.7872973327" lon="28.9361675642"><ele>16.00</ele><time>2026-09-01T16:13:05Z</time></trkpt><trkpt lat="59.7872591112" lon="28.9362386428"><ele>16.00</ele><time>2026-09-01T16:13:13Z</time></trkpt><trkpt lat="59.7872390784" lon="28.9363105595"><ele>16.00</ele><time>2026-09-01T16:13:20Z</time></trkpt><trkpt lat="59.7872172855" lon="28.9363557380"><ele>16.00</ele><time>2026-09-01T16:13:29Z</time></trkpt><trkpt lat="59.7872114182" lon="28.9363615215"><ele>16.00</ele><time>2026-09-01T16:13:41Z</time></trkpt><trkpt lat="59.7871874459" lon="28.9364356175"><ele>16.00</ele><time>2026-09-01T16:13:49Z</time></trkpt><trkpt lat="59.7871510684" lon="28.9365424030"><ele>15.04</ele><time>2026-09-01T16:13:58Z</time></trkpt><trkpt lat="59.7870736197" lon="28.9366629347"><ele>15.04</ele><time>2026-09-01T16:14:06Z</time></trkpt><trkpt lat="59.7870250884" lon="28.9367911778"><ele>15.04</ele><time>2026-09-01T16:14:15Z</time></trkpt><trkpt lat="59.7869768925" lon="28.9369516075"><ele>15.04</ele><time>2026-09-01T16:14:24Z</time></trkpt><trkpt lat="59.7869198117" lon="28.9370561298"><ele>15.04</ele><time>2026-09-01T16:14:32Z</time></trkpt><trkpt lat="59.7868664190" lon="28.9371451456"><ele>14.56</ele><time>2026-09-01T16:14:40Z</time></trkpt><trkpt lat="59.7868512478" lon="28.9371668547"><ele>14.56</ele><time>2026-09-01T16:14:48Z</time></trkpt><trkpt lat="59.7868047282" lon="28.9372329880"><ele>14.56</ele><time>2026-09-01T16:14:56Z</time></trkpt><trkpt lat="59.7867077496" lon="28.9373592194"><ele>14.56</ele><time>2026-09-01T16:15:06Z</time></trkpt><trkpt lat="59.7866442148" lon="28.9374441281"><ele>14.56</ele><time>2026-09-01T16:15:12Z</time></trkpt><trkpt lat="59.7866028082" lon="28.9375426155"><ele>14.08</ele><time>2026-09-01T16:15:22Z</time></trkpt><trkpt lat="59.7865872178" lon="28.9375830162"><ele>14.08</ele><time>2026-09-01T16:15:30Z</time></trkpt><trkpt lat="59.7865805961" lon="28.9375869557"><ele>14.08</ele><time>2026-09-01T16:15:40Z</time></trkpt><trkpt lat="59.7865728009" lon="28.9376131073"><ele>13.60</ele><time>2026-09-01T16:15:54Z</time></trkpt><trkpt lat="59.7865691967" lon="28.9376160409"><ele>13.60</ele><time>2026-09-01T16:16:07Z</time></trkpt><trkpt lat="59.7865723819" lon="28.9376287814"><ele>13.60</ele><time>2026-09-01T16:16:22Z</time></trkpt><trkpt lat="59.7865706217" lon="28.9376371633"><ele>13.60</ele><time>2026-09-01T16:16:32Z</time></trkpt><trkpt lat="59.7865704540" lon="28.9376421925"><ele>13.60</ele><time>2026-09-01T16:16:49Z</time></trkpt><trkpt lat="59.7865674365" lon="28.9376533404"><ele>13.60</ele><time>2026-09-01T16:17:05Z</time></trkpt><trkpt lat="59.7865664307" lon="28.9376601297"><ele>13.60</ele><time>2026-09-01T16:17:20Z</time></trkpt><trkpt lat="59.7865665983" lon="28.9376612194"><ele>13.60</ele><time>2026-09-01T16:17:32Z</time></trkpt><trkpt lat="59.7865671851" lon="28.9376654942"><ele>13.60</ele><time>2026-09-01T16:17:46Z</time></trkpt><trkpt lat="59.7865682747" lon="28.9376696851"><ele>13.60</ele><time>2026-09-01T16:18:01Z</time></trkpt><trkpt lat="59.7865709569" lon="28.9376711100"><ele>13.60</ele><time>2026-09-01T16:18:13Z</time></trkpt><trkpt lat="59.7865731362" lon="28.9376505744"><ele>13.60</ele><time>2026-09-01T16:18:19Z</time></trkpt><trkpt lat="59.7865748126" lon="28.9376512449"><ele>13.12</ele><time>2026-09-01T16:18:32Z</time></trkpt><trkpt lat="59.7865941748" lon="28.9376468863"><ele>13.12</ele><time>2026-09-01T16:18:41Z</time></trkpt><trkpt lat="59.7865972761" lon="28.9376533404"><ele>13.12</ele><time>2026-09-01T16:18:51Z</time></trkpt><trkpt lat="59.7866069153" lon="28.9376630634"><ele>13.12</ele><time>2026-09-01T16:19:09Z</time></trkpt><trkpt lat="59.7866059095" lon="28.9376784861"><ele>13.12</ele><time>2026-09-01T16:19:23Z</time></trkpt><trkpt lat="59.7865929175" lon="28.9376603812"><ele>13.12</ele><time>2026-09-01T16:19:33Z</time></trkpt><trkpt lat="59.7865834460" lon="28.9376548491"><ele>13.12</ele><time>2026-09-01T16:19:42Z</time></trkpt><trkpt lat="59.7865803447" lon="28.9376471378"><ele>13.12</ele><time>2026-09-01T16:19:49Z</time></trkpt><trkpt lat="59.7865703702" lon="28.9376400970"><ele>13.12</ele><time>2026-09-01T16:20:01Z</time></trkpt><trkpt lat="59.7865876369" lon="28.9376063179"><ele>14.08</ele><time>2026-09-01T16:20:08Z</time></trkpt><trkpt lat="59.7866001260" lon="28.9375656657"><ele>14.08</ele><time>2026-09-01T16:20:15Z</time></trkpt><trkpt lat="59.7866100166" lon="28.9374850318"><ele>14.08</ele><time>2026-09-01T16:20:23Z</time></trkpt><trkpt lat="59.7866491601" lon="28.9374738000"><ele>14.08</ele><time>2026-09-01T16:20:30Z</time></trkpt><trkpt lat="59.7867048159" lon="28.9373225067"><ele>14.08</ele><time>2026-09-01T16:20:38Z</time></trkpt><trkpt lat="59.7867455520" lon="28.9372781664"><ele>14.08</ele><time>2026-09-01T16:20:45Z</time></trkpt><trkpt lat="59.7867541015" lon="28.9372950140"><ele>14.08</ele><time>2026-09-01T16:21:00Z</time></trkpt><trkpt lat="59.7867916524" lon="28.9372284617"><ele>14.08</ele><time>2026-09-01T16:21:10Z</time></trkpt><trkpt lat="59.7868679278" lon="28.9370907471"><ele>14.08</ele><time>2026-09-01T16:21:20Z</time></trkpt><trkpt lat="59.7869307920" lon="28.9369842969"><ele>14.08</ele><time>2026-09-01T16:21:30Z</time></trkpt><trkpt lat="59.7869625594" lon="28.9368673693"><ele>14.08</ele><time>2026-09-01T16:21:38Z</time></trkpt><trkpt lat="59.7870050557" lon="28.9367789403"><ele>14.08</ele><time>2026-09-01T16:21:46Z</time></trkpt><trkpt lat="59.7870646510" lon="28.9366449136"><ele>14.08</ele><time>2026-09-01T16:21:56Z</time></trkpt><trkpt lat="59.7871178761" lon="28.9365085401"><ele>14.08</ele><time>2026-09-01T16:22:06Z</time></trkpt><trkpt lat="59.7871428542" lon="28.9364419878"><ele>14.08</ele><time>2026-09-01T16:22:15Z</time></trkpt><trkpt lat="59.7871912178" lon="28.9363507088"><ele>14.08</ele><time>2026-09-01T16:22:24Z</time></trkpt><trkpt lat="59.7872242425" lon="28.9362804685"><ele>14.56</ele><time>2026-09-01T16:22:32Z</time></trkpt><trkpt lat="59.7872575186" lon="28.9362372179"><ele>14.56</ele><time>2026-09-01T16:22:39Z</time></trkpt><trkpt lat="59.7872807365" lon="28.9361451007"><ele>14.56</ele><time>2026-09-01T16:22:47Z</time></trkpt><trkpt lat="59.7872983385" lon="28.9360841643"><ele>14.56</ele><time>2026-09-01T16:22:55Z</time></trkpt><trkpt lat="59.7873140126" lon="28.9360636286"><ele>15.04</ele><time>2026-09-01T16:23:03Z</time></trkpt><trkpt lat="59.7873128392" lon="28.9360653050"><ele>15.04</ele><time>2026-09-01T16:23:19Z</time></trkpt><trkpt lat="59.7873234842" lon="28.9360586833"><ele>15.04</ele><time>2026-09-01T16:23:30Z</time></trkpt><trkpt lat="59.7873264179" lon="28.9360063802"><ele>15.04</ele><time>2026-09-01T16:23:37Z</time></trkpt><trkpt lat="59.7873493843" lon="28.9359538257"><ele>15.04</ele><time>2026-09-01T16:23:43Z</time></trkpt><trkpt lat="59.7873714287" lon="28.9359180350"><ele>15.04</ele><time>2026-09-01T16:23:50Z</time></trkpt><trkpt lat="59.7874162719" lon="28.9358546678"><ele>15.04</ele><time>2026-09-01T16:24:00Z</time></trkpt><trkpt lat="59.7874783818" lon="28.9357576054"><ele>15.04</ele><time>2026-09-01T16:24:09Z</time></trkpt><trkpt lat="59.7875125799" lon="28.9356573578"><ele>15.04</ele><time>2026-09-01T16:24:18Z</time></trkpt><trkpt lat="59.7876039427" lon="28.9355199784"><ele>15.04</ele><time>2026-09-01T16:24:27Z</time></trkpt><trkpt lat="59.7876910307" lon="28.9354005363"><ele>15.04</ele><time>2026-09-01T16:24:37Z</time></trkpt><trkpt lat="59.7877991572" lon="28.9351982810"><ele>15.04</ele><time>2026-09-01T16:24:49Z</time></trkpt><trkpt lat="59.7878458444" lon="28.9351042360"><ele>15.04</ele><time>2026-09-01T16:24:57Z</time></trkpt><trkpt lat="59.7878813837" lon="28.9349744003"><ele>15.04</ele><time>2026-09-01T16:25:07Z</time></trkpt><trkpt lat="59.7878997400" lon="28.9349258691"><ele>15.04</ele><time>2026-09-01T16:25:17Z</time></trkpt><trkpt lat="59.7879057750" lon="28.9348991308"><ele>15.04</ele><time>2026-09-01T16:25:25Z</time></trkpt><trkpt lat="59.7879132349" lon="28.9348766673"><ele>14.08</ele><time>2026-09-01T16:25:35Z</time></trkpt><trkpt lat="59.7879258916" lon="28.9348103665"><ele>14.08</ele><time>2026-09-01T16:25:42Z</time></trkpt><trkpt lat="59.7879320104" lon="28.9346610010"><ele>14.08</ele><time>2026-09-01T16:25:51Z</time></trkpt><trkpt lat="59.7879707348" lon="28.9344843104"><ele>15.04</ele><time>2026-09-01T16:26:00Z</time></trkpt><trkpt lat="59.7880543862" lon="28.9343830571"><ele>15.04</ele><time>2026-09-01T16:26:09Z</time></trkpt><trkpt lat="59.7880701441" lon="28.9343947079"><ele>15.04</ele><time>2026-09-01T16:26:20Z</time></trkpt><trkpt lat="59.7881249618" lon="28.9342919458"><ele>15.04</ele><time>2026-09-01T16:26:28Z</time></trkpt><trkpt lat="59.7881945316" lon="28.9341937937"><ele>15.04</ele><time>2026-09-01T16:26:37Z</time></trkpt><trkpt lat="59.7882666159" lon="28.9340963122"><ele>15.04</ele><time>2026-09-01T16:26:46Z</time></trkpt><trkpt lat="59.7883035801" lon="28.9339975733"><ele>15.04</ele><time>2026-09-01T16:26:53Z</time></trkpt><trkpt lat="59.7883328330" lon="28.9339282550"><ele>15.04</ele><time>2026-09-01T16:27:01Z</time></trkpt><trkpt lat="59.7883668635" lon="28.9338335395"><ele>15.04</ele><time>2026-09-01T16:27:08Z</time></trkpt><trkpt lat="59.7883827891" lon="28.9338105731"><ele>15.52</ele><time>2026-09-01T16:27:16Z</time></trkpt><trkpt lat="59.7884132154" lon="28.9337588567"><ele>15.52</ele><time>2026-09-01T16:27:24Z</time></trkpt><trkpt lat="59.7884516884" lon="28.9337486308"><ele>15.52</ele><time>2026-09-01T16:27:34Z</time></trkpt><trkpt lat="59.7885568812" lon="28.9335923083"><ele>15.52</ele><time>2026-09-01T16:27:44Z</time></trkpt><trkpt lat="59.7886352520" lon="28.9334522467"><ele>16.00</ele><time>2026-09-01T16:27:53Z</time></trkpt><trkpt lat="59.7886700369" lon="28.9333525859"><ele>16.00</ele><time>2026-09-01T16:28:02Z</time></trkpt><trkpt lat="59.7887269501" lon="28.9332282823"><ele>16.00</ele><time>2026-09-01T16:28:10Z</time></trkpt><trkpt lat="59.7887651715" lon="28.9331659209"><ele>16.00</ele><time>2026-09-01T16:28:16Z</time></trkpt><trkpt lat="59.7888035607" lon="28.9330531005"><ele>16.00</ele><time>2026-09-01T16:28:24Z</time></trkpt><trkpt lat="59.7888360824" lon="28.9329105243"><ele>16.00</ele><time>2026-09-01T16:28:34Z</time></trkpt><trkpt lat="59.7888979409" lon="28.9327711333"><ele>16.00</ele><time>2026-09-01T16:28:43Z</time></trkpt><trkpt lat="59.7889311332" lon="28.9326763339"><ele>16.00</ele><time>2026-09-01T16:28:51Z</time></trkpt><trkpt lat="59.7889682651" lon="28.9326005615"><ele>16.48</ele><time>2026-09-01T16:28:59Z</time></trkpt><trkpt lat="59.7890217416" lon="28.9325090311"><ele>16.48</ele><time>2026-09-01T16:29:07Z</time></trkpt><trkpt lat="59.7890930716" lon="28.9324513637"><ele>16.48</ele><time>2026-09-01T16:29:17Z</time></trkpt><trkpt lat="59.7891521640" lon="28.9323069435"><ele>16.48</ele><time>2026-09-01T16:29:26Z</time></trkpt><trkpt lat="59.7892239969" lon="28.9321978949"><ele>16.48</ele><time>2026-09-01T16:29:35Z</time></trkpt><trkpt lat="59.7892935667" lon="28.9321029279"><ele>16.48</ele><time>2026-09-01T16:29:43Z</time></trkpt><trkpt lat="59.7893333808" lon="28.9320264850"><ele>16.48</ele><time>2026-09-01T16:29:50Z</time></trkpt><trkpt lat="59.7893725242" lon="28.9319310151"><ele>16.48</ele><time>2026-09-01T16:29:57Z</time></trkpt><trkpt lat="59.7894000169" lon="28.9318334498"><ele>15.04</ele><time>2026-09-01T16:30:05Z</time></trkpt><trkpt lat="59.7894185409" lon="28.9317491278"><ele>15.04</ele><time>2026-09-01T16:30:12Z</time></trkpt><trkpt lat="59.7894612886" lon="28.9316679072"><ele>14.56</ele><time>2026-09-01T16:30:19Z</time></trkpt><trkpt lat="59.7894969117" lon="28.9315512311"><ele>14.56</ele><time>2026-09-01T16:30:28Z</time></trkpt><trkpt lat="59.7895774618" lon="28.9314286876"><ele>14.56</ele><time>2026-09-01T16:30:36Z</time></trkpt><trkpt lat="59.7896430921" lon="28.9313170407"><ele>14.56</ele><time>2026-09-01T16:30:45Z</time></trkpt><trkpt lat="59.7896824032" lon="28.9311944973"><ele>14.56</ele><time>2026-09-01T16:30:53Z</time></trkpt><trkpt lat="59.7897329461" lon="28.9310280327"><ele>14.56</ele><time>2026-09-01T16:31:02Z</time></trkpt><trkpt lat="59.7897855006" lon="28.9309028909"><ele>14.56</ele><time>2026-09-01T16:31:11Z</time></trkpt><trkpt lat="59.7898278292" lon="28.9308290463"><ele>14.56</ele><time>2026-09-01T16:31:20Z</time></trkpt><trkpt lat="59.7898544837" lon="28.9307441376"><ele>14.56</ele><time>2026-09-01T16:31:29Z</time></trkpt><trkpt lat="59.7898795456" lon="28.9306675270"><ele>14.56</ele><time>2026-09-01T16:31:37Z</time></trkpt><trkpt lat="59.7899047751" lon="28.9306070935"><ele>14.56</ele><time>2026-09-01T16:31:44Z</time></trkpt><trkpt lat="59.7899082117" lon="28.9305817802"><ele>14.56</ele><time>2026-09-01T16:31:46Z</time></trkpt><trkpt lat="59.7899310105" lon="28.9304481726"><ele>14.08</ele><time>2026-09-01T16:31:55Z</time></trkpt><trkpt lat="59.7899626940" lon="28.9303802792"><ele>14.08</ele><time>2026-09-01T16:32:03Z</time></trkpt><trkpt lat="59.7899725009" lon="28.9302828815"><ele>14.08</ele><time>2026-09-01T16:32:10Z</time></trkpt><trkpt lat="59.7900115605" lon="28.9301698934"><ele>14.08</ele><time>2026-09-01T16:32:19Z</time></trkpt><trkpt lat="59.7900644504" lon="28.9300605096"><ele>14.08</ele><time>2026-09-01T16:32:30Z</time></trkpt><trkpt lat="59.7901004087" lon="28.9299637824"><ele>14.08</ele><time>2026-09-01T16:32:37Z</time></trkpt><trkpt lat="59.7901543882" lon="28.9298767783"><ele>14.08</ele><time>2026-09-01T16:32:46Z</time></trkpt><trkpt lat="59.7902026679" lon="28.9297786262"><ele>14.08</ele><time>2026-09-01T16:32:53Z</time></trkpt><trkpt lat="59.7902741656" lon="28.9296744391"><ele>14.08</ele><time>2026-09-01T16:33:03Z</time></trkpt><trkpt lat="59.7903296538" lon="28.9296373911"><ele>14.08</ele><time>2026-09-01T16:33:11Z</time></trkpt><trkpt lat="59.7903814539" lon="28.9295251574"><ele>14.08</ele><time>2026-09-01T16:33:21Z</time></trkpt><trkpt lat="59.7904359363" lon="28.9293767139"><ele>13.60</ele><time>2026-09-01T16:33:30Z</time></trkpt><trkpt lat="59.7904998064" lon="28.9292743709"><ele>13.60</ele><time>2026-09-01T16:33:39Z</time></trkpt><trkpt lat="59.7905534506" lon="28.9292158652"><ele>13.60</ele><time>2026-09-01T16:33:47Z</time></trkpt><trkpt lat="59.7905982099" lon="28.9291326329"><ele>13.60</ele><time>2026-09-01T16:33:55Z</time></trkpt><trkpt lat="59.7906368505" lon="28.9290542621"><ele>13.60</ele><time>2026-09-01T16:34:03Z</time></trkpt><trkpt lat="59.7906562127" lon="28.9290369116"><ele>13.60</ele><time>2026-09-01T16:34:08Z</time></trkpt><trkpt lat="59.7906683665" lon="28.9289985225"><ele>13.60</ele><time>2026-09-01T16:34:17Z</time></trkpt><trkpt lat="59.7906938475" lon="28.9289134461"><ele>13.60</ele><time>2026-09-01T16:34:24Z</time></trkpt><trkpt lat="59.7907357570" lon="28.9288152941"><ele>13.60</ele><time>2026-09-01T16:34:33Z</time></trkpt><trkpt lat="59.7907631658" lon="28.9287489094"><ele>13.60</ele><time>2026-09-01T16:34:42Z</time></trkpt><trkpt lat="59.7907958552" lon="28.9287007973"><ele>13.60</ele><time>2026-09-01T16:34:47Z</time></trkpt><trkpt lat="59.7908613179" lon="28.9286165591"><ele>13.12</ele><time>2026-09-01T16:34:56Z</time></trkpt><trkpt lat="59.7909035627" lon="28.9285912458"><ele>13.12</ele><time>2026-09-01T16:35:04Z</time></trkpt><trkpt lat="59.7909287084" lon="28.9285614900"><ele>12.63</ele><time>2026-09-01T16:35:09Z</time></trkpt><trkpt lat="59.7909351625" lon="28.9285516832"><ele>12.63</ele><time>2026-09-01T16:35:10Z</time></trkpt><trkpt lat="59.7909678519" lon="28.9285243582"><ele>12.63</ele><time>2026-09-01T16:35:14Z</time></trkpt><trkpt lat="59.7910253517" lon="28.9284340851"><ele>12.63</ele><time>2026-09-01T16:35:23Z</time></trkpt><trkpt lat="59.7910451330" lon="28.9283806086"><ele>12.63</ele><time>2026-09-01T16:35:30Z</time></trkpt><trkpt lat="59.7911012080" lon="28.9283050038"><ele>12.63</ele><time>2026-09-01T16:35:40Z</time></trkpt><trkpt lat="59.7911170498" lon="28.9282526169"><ele>12.63</ele><time>2026-09-01T16:35:46Z</time></trkpt><trkpt lat="59.7911266051" lon="28.9282387868"><ele>12.63</ele><time>2026-09-01T16:35:56Z</time></trkpt><trkpt lat="59.7911727894" lon="28.9281858969"><ele>12.15</ele><time>2026-09-01T16:36:04Z</time></trkpt><trkpt lat="59.7912126873" lon="28.9280486014"><ele>12.15</ele><time>2026-09-01T16:36:12Z</time></trkpt><trkpt lat="59.7912424430" lon="28.9279376250"><ele>12.15</ele><time>2026-09-01T16:36:20Z</time></trkpt><trkpt lat="59.7912801616" lon="28.9278226253"><ele>12.15</ele><time>2026-09-01T16:36:28Z</time></trkpt><trkpt lat="59.7913063131" lon="28.9277701546"><ele>11.67</ele><time>2026-09-01T16:36:36Z</time></trkpt><trkpt lat="59.7913456243" lon="28.9276065398"><ele>11.67</ele><time>2026-09-01T16:36:47Z</time></trkpt><trkpt lat="59.7913706023" lon="28.9274927136"><ele>11.67</ele><time>2026-09-01T16:36:56Z</time></trkpt><trkpt lat="59.7914203070" lon="28.9273764566"><ele>11.67</ele><time>2026-09-01T16:37:05Z</time></trkpt><trkpt lat="59.7914630547" lon="28.9272162784"><ele>11.67</ele><time>2026-09-01T16:37:14Z</time></trkpt><trkpt lat="59.7915021982" lon="28.9270707686"><ele>11.67</ele><time>2026-09-01T16:37:23Z</time></trkpt><trkpt lat="59.7915294394" lon="28.9269726165"><ele>11.67</ele><time>2026-09-01T16:37:30Z</time></trkpt><trkpt lat="59.7915893700" lon="28.9268540964"><ele>11.67</ele><time>2026-09-01T16:37:39Z</time></trkpt><trkpt lat="59.7916338779" lon="28.9267428685"><ele>11.67</ele><time>2026-09-01T16:37:47Z</time></trkpt><trkpt lat="59.7916830797" lon="28.9266418666"><ele>11.67</ele><time>2026-09-01T16:37:54Z</time></trkpt><trkpt lat="59.7917410824" lon="28.9265557006"><ele>11.67</ele><time>2026-09-01T16:38:01Z</time></trkpt><trkpt lat="59.7918377258" lon="28.9264859632"><ele>11.67</ele><time>2026-09-01T16:38:11Z</time></trkpt><trkpt lat="59.7919131629" lon="28.9264323190"><ele>11.67</ele><time>2026-09-01T16:38:19Z</time></trkpt><trkpt lat="59.7919581737" lon="28.9263824467"><ele>11.67</ele><time>2026-09-01T16:38:27Z</time></trkpt><trkpt lat="59.7919784579" lon="28.9263469074"><ele>11.19</ele><time>2026-09-01T16:38:33Z</time></trkpt><trkpt lat="59.7919865884" lon="28.9263034053"><ele>11.19</ele><time>2026-09-01T16:38:40Z</time></trkpt><trkpt lat="59.7919739317" lon="28.9261400420"><ele>11.19</ele><time>2026-09-01T16:38:50Z</time></trkpt><trkpt lat="59.7919628676" lon="28.9260927681"><ele>11.19</ele><time>2026-09-01T16:38:53Z</time></trkpt><trkpt lat="59.7919318546" lon="28.9259099588"><ele>11.19</ele><time>2026-09-01T16:39:04Z</time></trkpt><trkpt lat="59.7919237241" lon="28.9258118067"><ele>11.19</ele><time>2026-09-01T16:39:11Z</time></trkpt><trkpt lat="59.7919306811" lon="28.9258159976"><ele>11.19</ele><time>2026-09-01T16:39:24Z</time></trkpt><trkpt lat="59.7919288371" lon="28.9258270618"><ele>11.19</ele><time>2026-09-01T16:39:35Z</time></trkpt><trkpt lat="59.7919352073" lon="28.9258306660"><ele>11.19</ele><time>2026-09-01T16:39:47Z</time></trkpt><trkpt lat="59.7919353750" lon="28.9258340187"><ele>11.19</ele><time>2026-09-01T16:40:00Z</time></trkpt><trkpt lat="59.7919281665" lon="28.9258214459"><ele>11.19</ele><time>2026-09-01T16:40:14Z</time></trkpt><trkpt lat="59.7919287533" lon="28.9258259721"><ele>11.19</ele><time>2026-09-01T16:40:30Z</time></trkpt><trkpt lat="59.7919310164" lon="28.9258253854"><ele>11.19</ele><time>2026-09-01T16:40:46Z</time></trkpt><trkpt lat="59.7919306811" lon="28.9258242119"><ele>11.19</ele><time>2026-09-01T16:40:55Z</time></trkpt><trkpt lat="59.7919253167" lon="28.9258238766"><ele>11.19</ele><time>2026-09-01T16:41:08Z</time></trkpt><trkpt lat="59.7919281665" lon="28.9258268103"><ele>11.19</ele><time>2026-09-01T16:41:22Z</time></trkpt><trkpt lat="59.7919293400" lon="28.9258237928"><ele>11.19</ele><time>2026-09-01T16:41:32Z</time></trkpt><trkpt lat="59.7919256520" lon="28.9258136507"><ele>11.19</ele><time>2026-09-01T16:41:40Z</time></trkpt><trkpt lat="59.7918978240" lon="28.9256797917"><ele>11.19</ele><time>2026-09-01T16:41:49Z</time></trkpt><trkpt lat="59.7918899450" lon="28.9256331883"><ele>11.19</ele><time>2026-09-01T16:41:52Z</time></trkpt><trkpt lat="59.7918806411" lon="28.9254517201"><ele>11.19</ele><time>2026-09-01T16:42:01Z</time></trkpt><trkpt lat="59.7918810602" lon="28.9252918772"><ele>11.19</ele><time>2026-09-01T16:42:11Z</time></trkpt><trkpt lat="59.7918833233" lon="28.9252727665"><ele>11.19</ele><time>2026-09-01T16:42:12Z</time></trkpt><trkpt lat="59.7918849997" lon="28.9252175298"><ele>11.19</ele><time>2026-09-01T16:42:15Z</time></trkpt><trkpt lat="59.7918664757" lon="28.9250384085"><ele>11.19</ele><time>2026-09-01T16:42:25Z</time></trkpt><trkpt lat="59.7918671463" lon="28.9250303619"><ele>11.19</ele><time>2026-09-01T16:42:32Z</time></trkpt><trkpt lat="59.7918800544" lon="28.9250139333"><ele>11.19</ele><time>2026-09-01T16:42:37Z</time></trkpt><trkpt lat="59.7919274960" lon="28.9249954931"><ele>11.19</ele><time>2026-09-01T16:42:41Z</time></trkpt><trkpt lat="59.7919709142" lon="28.9249679167"><ele>11.19</ele><time>2026-09-01T16:42:48Z</time></trkpt><trkpt lat="59.7920559905" lon="28.9249225706"><ele>11.19</ele><time>2026-09-01T16:42:57Z</time></trkpt><trkpt lat="59.7921378817" lon="28.9249130990"><ele>11.19</ele><time>2026-09-01T16:43:07Z</time></trkpt><trkpt lat="59.7922066133" lon="28.9248693455"><ele>11.19</ele><time>2026-09-01T16:43:16Z</time></trkpt><trkpt lat="59.7922613472" lon="28.9248458762"><ele>11.19</ele><time>2026-09-01T16:43:23Z</time></trkpt><trkpt lat="59.7923330124" lon="28.9248550963"><ele>10.71</ele><time>2026-09-01T16:43:31Z</time></trkpt><trkpt lat="59.7923423164" lon="28.9248560183"><ele>10.71</ele><time>2026-09-01T16:43:32Z</time></trkpt><trkpt lat="59.7923946194" lon="28.9248834271"><ele>10.71</ele><time>2026-09-01T16:43:38Z</time></trkpt><trkpt lat="59.7924076952" lon="28.9249840938"><ele>10.71</ele><time>2026-09-01T16:43:43Z</time></trkpt><trkpt lat="59.7924320027" lon="28.9251602814"><ele>10.71</ele><time>2026-09-01T16:43:52Z</time></trkpt><trkpt lat="59.7924293205" lon="28.9252419211"><ele>10.71</ele><time>2026-09-01T16:43:58Z</time></trkpt><trkpt lat="59.7924815398" lon="28.9252476208"><ele>10.71</ele><time>2026-09-01T16:44:06Z</time></trkpt><trkpt lat="59.7925610002" lon="28.9251940604"><ele>10.71</ele><time>2026-09-01T16:44:15Z</time></trkpt><trkpt lat="59.7926861420" lon="28.9251880255"><ele>10.71</ele><time>2026-09-01T16:44:27Z</time></trkpt><trkpt lat="59.7927549575" lon="28.9253092278"><ele>10.71</ele><time>2026-09-01T16:44:36Z</time></trkpt><trkpt lat="59.7927955259" lon="28.9253549930"><ele>10.71</ele><time>2026-09-01T16:44:41Z</time></trkpt><trkpt lat="59.7929251939" lon="28.9253448509"><ele>10.71</ele><time>2026-09-01T16:44:52Z</time></trkpt><trkpt lat="59.7929467354" lon="28.9253519755"><ele>10.71</ele><time>2026-09-01T16:44:59Z</time></trkpt><trkpt lat="59.7929541953" lon="28.9253673982"><ele>10.71</ele><time>2026-09-01T16:45:05Z</time></trkpt><trkpt lat="59.7929894831" lon="28.9253098145"><ele>10.71</ele><time>2026-09-01T16:45:11Z</time></trkpt><trkpt lat="59.7929945122" lon="28.9252509736"><ele>10.71</ele><time>2026-09-01T16:45:14Z</time></trkpt><trkpt lat="59.7929883935" lon="28.9251617063"><ele>10.71</ele><time>2026-09-01T16:45:18Z</time></trkpt><trkpt lat="59.7929919139" lon="28.9250968304"><ele>10.71</ele><time>2026-09-01T16:45:21Z</time></trkpt><trkpt lat="59.7929830290" lon="28.9248531684"><ele>10.71</ele><time>2026-09-01T16:45:32Z</time></trkpt><trkpt lat="59.7929849569" lon="28.9246126078"><ele>10.71</ele><time>2026-09-01T16:45:43Z</time></trkpt><trkpt lat="59.7929775808" lon="28.9243922476"><ele>10.71</ele><time>2026-09-01T16:45:53Z</time></trkpt><trkpt lat="59.7929704562" lon="28.9243427943"><ele>10.71</ele><time>2026-09-01T16:45:55Z</time></trkpt><trkpt lat="59.7929681093" lon="28.9242245257"><ele>10.23</ele><time>2026-09-01T16:46:00Z</time></trkpt><trkpt lat="59.7929684445" lon="28.9239604957"><ele>10.23</ele><time>2026-09-01T16:46:11Z</time></trkpt><trkpt lat="59.7929671872" lon="28.9237692207"><ele>10.23</ele><time>2026-09-01T16:46:20Z</time></trkpt><trkpt lat="59.7929600626" lon="28.9235624392"><ele>10.23</ele><time>2026-09-01T16:46:29Z</time></trkpt><trkpt lat="59.7929613199" lon="28.9233291708"><ele>10.23</ele><time>2026-09-01T16:46:39Z</time></trkpt><trkpt lat="59.7929628287" lon="28.9231450204"><ele>10.23</ele><time>2026-09-01T16:46:47Z</time></trkpt><trkpt lat="59.7929491661" lon="28.9228811581"><ele>10.23</ele><time>2026-09-01T16:46:58Z</time></trkpt><trkpt lat="59.7929400299" lon="28.9226381667"><ele>10.23</ele><time>2026-09-01T16:47:09Z</time></trkpt><trkpt lat="59.7929414548" lon="28.9223858714"><ele>10.23</ele><time>2026-09-01T16:47:20Z</time></trkpt><trkpt lat="59.7929339111" lon="28.9221268706"><ele>10.23</ele><time>2026-09-01T16:47:31Z</time></trkpt><trkpt lat="59.7929377668" lon="28.9218854718"><ele>10.23</ele><time>2026-09-01T16:47:41Z</time></trkpt><trkpt lat="59.7929367609" lon="28.9218169916"><ele>10.23</ele><time>2026-09-01T16:47:44Z</time></trkpt><trkpt lat="59.7929305583" lon="28.9214867447"><ele>10.23</ele><time>2026-09-01T16:47:58Z</time></trkpt><trkpt lat="59.7929276247" lon="28.9212727547"><ele>10.23</ele><time>2026-09-01T16:48:07Z</time></trkpt><trkpt lat="59.7929349169" lon="28.9212026820"><ele>10.23</ele><time>2026-09-01T16:48:10Z</time></trkpt><trkpt lat="59.7929227632" lon="28.9209844172"><ele>10.23</ele><time>2026-09-01T16:48:20Z</time></trkpt><trkpt lat="59.7929204162" lon="28.9208612032"><ele>10.23</ele><time>2026-09-01T16:48:28Z</time></trkpt><trkpt lat="59.7929329891" lon="28.9208327048"><ele>10.23</ele><time>2026-09-01T16:48:36Z</time></trkpt><trkpt lat="59.7929332405" lon="28.9208163600"><ele>10.23</ele><time>2026-09-01T16:48:37Z</time></trkpt><trkpt lat="59.7929329053" lon="28.9207522385"><ele>10.23</ele><time>2026-09-01T16:48:40Z</time></trkpt><trkpt lat="59.7929326538" lon="28.9207084011"><ele>10.23</ele><time>2026-09-01T16:48:42Z</time></trkpt><trkpt lat="59.7929356713" lon="28.9205364883"><ele>10.23</ele><time>2026-09-01T16:48:51Z</time></trkpt><trkpt lat="59.7929488309" lon="28.9205312077"><ele>10.23</ele><time>2026-09-01T16:48:58Z</time></trkpt><trkpt lat="59.7929489985" lon="28.9205314592"><ele>10.23</ele><time>2026-09-01T16:49:04Z</time></trkpt><trkpt lat="59.7929552011" lon="28.9205103368"><ele>10.23</ele><time>2026-09-01T16:49:16Z</time></trkpt><trkpt lat="59.7929567099" lon="28.9204997756"><ele>10.23</ele><time>2026-09-01T16:49:17Z</time></trkpt><trkpt lat="59.7929505911" lon="28.9204378333"><ele>10.23</ele><time>2026-09-01T16:49:20Z</time></trkpt><trkpt lat="59.7929463163" lon="28.9202625677"><ele>10.23</ele><time>2026-09-01T16:49:30Z</time></trkpt><trkpt lat="59.7929479927" lon="28.9202237595"><ele>10.23</ele><time>2026-09-01T16:49:33Z</time></trkpt><trkpt lat="59.7929346655" lon="28.9200337417"><ele>10.23</ele><time>2026-09-01T16:49:42Z</time></trkpt><trkpt lat="59.7929358389" lon="28.9199525211"><ele>10.23</ele><time>2026-09-01T16:49:47Z</time></trkpt><trkpt lat="59.7929287981" lon="28.9198044967"><ele>10.23</ele><time>2026-09-01T16:49:53Z</time></trkpt><trkpt lat="59.7929251939" lon="28.9196889102"><ele>10.23</ele><time>2026-09-01T16:49:58Z</time></trkpt><trkpt lat="59.7929136269" lon="28.9195422269"><ele>10.23</ele><time>2026-09-01T16:50:05Z</time></trkpt><trkpt lat="59.7928730585" lon="28.9194676280"><ele>10.23</ele><time>2026-09-01T16:50:11Z</time></trkpt><trkpt lat="59.7927702963" lon="28.9195413049"><ele>10.23</ele><time>2026-09-01T16:50:22Z</time></trkpt><trkpt lat="59.7927060071" lon="28.9195931889"><ele>10.23</ele><time>2026-09-01T16:50:31Z</time></trkpt><trkpt lat="59.7927025706" lon="28.9195985533"><ele>10.23</ele><time>2026-09-01T16:50:38Z</time></trkpt><trkpt lat="59.7927049175" lon="28.9195952844"><ele>10.23</ele><time>2026-09-01T16:50:44Z</time></trkpt><trkpt lat="59.7927138861" lon="28.9195807837"><ele>10.23</ele><time>2026-09-01T16:50:51Z</time></trkpt><trkpt lat="59.7926967032" lon="28.9195907582"><ele>10.23</ele><time>2026-09-01T16:50:53Z</time></trkpt><trkpt lat="59.7926753294" lon="28.9196057618"><ele>10.23</ele><time>2026-09-01T16:51:01Z</time></trkpt><trkpt lat="59.7926837113" lon="28.9195924345"><ele>10.23</ele><time>2026-09-01T16:51:02Z</time></trkpt><trkpt lat="59.7927332483" lon="28.9195598289"><ele>10.23</ele><time>2026-09-01T16:51:06Z</time></trkpt><trkpt lat="59.7927621659" lon="28.9195134770"><ele>10.23</ele><time>2026-09-01T16:51:13Z</time></trkpt><trkpt lat="59.7927733976" lon="28.9195113815"><ele>10.23</ele><time>2026-09-01T16:51:20Z</time></trkpt><trkpt lat="59.7928600665" lon="28.9194747526"><ele>10.23</ele><time>2026-09-01T16:51:30Z</time></trkpt><trkpt lat="59.7928517684" lon="28.9194773510"><ele>10.23</ele><time>2026-09-01T16:51:31Z</time></trkpt><trkpt lat="59.7927806061" lon="28.9194941986"><ele>10.23</ele><time>2026-09-01T16:51:40Z</time></trkpt><trkpt lat="59.7927821986" lon="28.9194984734"><ele>10.23</ele><time>2026-09-01T16:51:53Z</time></trkpt><trkpt lat="59.7928064223" lon="28.9195004012"><ele>10.23</ele><time>2026-09-01T16:51:59Z</time></trkpt><trkpt lat="59.7928941809" lon="28.9194804523"><ele>10.23</ele><time>2026-09-01T16:52:08Z</time></trkpt><trkpt lat="59.7929044906" lon="28.9195159916"><ele>10.23</ele><time>2026-09-01T16:52:10Z</time></trkpt><trkpt lat="59.7929220088" lon="28.9197153132"><ele>10.23</ele><time>2026-09-01T16:52:21Z</time></trkpt><trkpt lat="59.7929348331" lon="28.9199065883"><ele>10.23</ele><time>2026-09-01T16:52:30Z</time></trkpt><trkpt lat="59.7929446399" lon="28.9200922474"><ele>10.23</ele><time>2026-09-01T16:52:39Z</time></trkpt><trkpt lat="59.7929359227" lon="28.9200881403"><ele>10.23</ele><time>2026-09-01T16:52:48Z</time></trkpt><trkpt lat="59.7929358389" lon="28.9200969413"><ele>10.23</ele><time>2026-09-01T16:52:59Z</time></trkpt><trkpt lat="59.7929359227" lon="28.9201332349"><ele>10.23</ele><time>2026-09-01T16:53:01Z</time></trkpt><trkpt lat="59.7929386050" lon="28.9201730490"><ele>10.23</ele><time>2026-09-01T16:53:03Z</time></trkpt><trkpt lat="59.7929469030" lon="28.9204020426"><ele>10.23</ele><time>2026-09-01T16:53:13Z</time></trkpt><trkpt lat="59.7929544467" lon="28.9206175413"><ele>10.23</ele><time>2026-09-01T16:53:23Z</time></trkpt><trkpt lat="59.7929536924" lon="28.9208391588"><ele>10.23</ele><time>2026-09-01T16:53:33Z</time></trkpt><trkpt lat="59.7929498367" lon="28.9210843295"><ele>10.23</ele><time>2026-09-01T16:53:44Z</time></trkpt><trkpt lat="59.7929504234" lon="28.9213430788"><ele>10.23</ele><time>2026-09-01T16:53:55Z</time></trkpt><trkpt lat="59.7929472383" lon="28.9215905126"><ele>10.23</ele><time>2026-09-01T16:54:06Z</time></trkpt><trkpt lat="59.7929497529" lon="28.9218760841"><ele>11.19</ele><time>2026-09-01T16:54:19Z</time></trkpt><trkpt lat="59.7929571290" lon="28.9220739808"><ele>11.19</ele><time>2026-09-01T16:54:28Z</time></trkpt><trkpt lat="59.7929645889" lon="28.9223037288"><ele>11.19</ele><time>2026-09-01T16:54:39Z</time></trkpt><trkpt lat="59.7929655109" lon="28.9225203171"><ele>11.19</ele><time>2026-09-01T16:54:49Z</time></trkpt><trkpt lat="59.7929748148" lon="28.9227573574"><ele>11.19</ele><time>2026-09-01T16:55:00Z</time></trkpt><trkpt lat="59.7929709591" lon="28.9229951520"><ele>11.19</ele><time>2026-09-01T16:55:11Z</time></trkpt><trkpt lat="59.7929697018" lon="28.9232098963"><ele>11.19</ele><time>2026-09-01T16:55:21Z</time></trkpt><trkpt lat="59.7929655109" lon="28.9232937153"><ele>11.19</ele><time>2026-09-01T16:55:30Z</time></trkpt><trkpt lat="59.7929775808" lon="28.9233181067"><ele>11.19</ele><time>2026-09-01T16:55:37Z</time></trkpt><trkpt lat="59.7929851245" lon="28.9233531430"><ele>11.19</ele><time>2026-09-01T16:55:45Z</time></trkpt><trkpt lat="59.7929764073" lon="28.9233435877"><ele>11.19</ele><time>2026-09-01T16:55:53Z</time></trkpt><trkpt lat="59.7929716296" lon="28.9233259857"><ele>11.19</ele><time>2026-09-01T16:56:06Z</time></trkpt><trkpt lat="59.7929770779" lon="28.9233765285"><ele>11.19</ele><time>2026-09-01T16:56:15Z</time></trkpt><trkpt lat="59.7929791734" lon="28.9235319290"><ele>11.19</ele><time>2026-09-01T16:56:24Z</time></trkpt><trkpt lat="59.7929815203" lon="28.9235668816"><ele>11.19</ele><time>2026-09-01T16:56:26Z</time></trkpt><trkpt lat="59.7929845378" lon="28.9236450009"><ele>11.19</ele><time>2026-09-01T16:56:30Z</time></trkpt><trkpt lat="59.7929893155" lon="28.9236842282"><ele>11.67</ele><time>2026-09-01T16:56:32Z</time></trkpt><trkpt lat="59.7929984517" lon="28.9238639362"><ele>11.67</ele><time>2026-09-01T16:56:41Z</time></trkpt><trkpt lat="59.7930110246" lon="28.9240644313"><ele>11.67</ele><time>2026-09-01T16:56:51Z</time></trkpt><trkpt lat="59.7930193227" lon="28.9242308121"><ele>11.67</ele><time>2026-09-01T16:56:59Z</time></trkpt><trkpt lat="59.7930175625" lon="28.9244100172"><ele>11.67</ele><time>2026-09-01T16:57:08Z</time></trkpt><trkpt lat="59.7930253576" lon="28.9246069081"><ele>11.67</ele><time>2026-09-01T16:57:17Z</time></trkpt><trkpt lat="59.7930297162" lon="28.9248040505"><ele>12.15</ele><time>2026-09-01T16:57:26Z</time></trkpt><trkpt lat="59.7930341586" lon="28.9249922242"><ele>12.15</ele><time>2026-09-01T16:57:35Z</time></trkpt><trkpt lat="59.7930369247" lon="28.9251924679"><ele>12.15</ele><time>2026-09-01T16:57:44Z</time></trkpt><trkpt lat="59.7930350807" lon="28.9254338667"><ele>12.15</ele><time>2026-09-01T16:57:55Z</time></trkpt><trkpt lat="59.7930300515" lon="28.9256503712"><ele>12.15</ele><time>2026-09-01T16:58:05Z</time></trkpt><trkpt lat="59.7930297162" lon="28.9258450828"><ele>12.15</ele><time>2026-09-01T16:58:14Z</time></trkpt><trkpt lat="59.7930307221" lon="28.9260209352"><ele>12.15</ele><time>2026-09-01T16:58:22Z</time></trkpt><trkpt lat="59.7930267826" lon="28.9260643534"><ele>12.15</ele><time>2026-09-01T16:58:24Z</time></trkpt><trkpt lat="59.7930427920" lon="28.9262629207"><ele>12.15</ele><time>2026-09-01T16:58:33Z</time></trkpt><trkpt lat="59.7930444684" lon="28.9264774136"><ele>12.15</ele><time>2026-09-01T16:58:43Z</time></trkpt><trkpt lat="59.7930510901" lon="28.9265697822"><ele>12.15</ele><time>2026-09-01T16:58:47Z</time></trkpt><trkpt lat="59.7930545267" lon="28.9267864544"><ele>12.15</ele><time>2026-09-01T16:58:57Z</time></trkpt><trkpt lat="59.7930610646" lon="28.9270019531"><ele>12.15</ele><time>2026-09-01T16:59:07Z</time></trkpt><trkpt lat="59.7930689435" lon="28.9271850977"><ele>12.15</ele><time>2026-09-01T16:59:16Z</time></trkpt><trkpt lat="59.7930616513" lon="28.9272198826"><ele>12.15</ele><time>2026-09-01T16:59:22Z</time></trkpt><trkpt lat="59.7930603102" lon="28.9272528235"><ele>12.15</ele><time>2026-09-01T16:59:26Z</time></trkpt><trkpt lat="59.7930618189" lon="28.9273978304"><ele>12.15</ele><time>2026-09-01T16:59:34Z</time></trkpt><trkpt lat="59.7930663452" lon="28.9274903666"><ele>12.15</ele><time>2026-09-01T16:59:39Z</time></trkpt><trkpt lat="59.7930704523" lon="28.9275911171"><ele>12.15</ele><time>2026-09-01T16:59:44Z</time></trkpt><trkpt lat="59.7930784989" lon="28.9277542289"><ele>12.63</ele><time>2026-09-01T16:59:52Z</time></trkpt><trkpt lat="59.7930603940" lon="28.9279363677"><ele>12.63</ele><time>2026-09-01T17:00:01Z</time></trkpt><trkpt lat="59.7930071689" lon="28.9280821290"><ele>12.63</ele><time>2026-09-01T17:00:10Z</time></trkpt><trkpt lat="59.7929831129" lon="28.9281029999"><ele>12.63</ele><time>2026-09-01T17:00:19Z</time></trkpt><trkpt lat="59.7929800954" lon="28.9281040058"><ele>12.63</ele><time>2026-09-01T17:00:31Z</time></trkpt><trkpt lat="59.7929702047" lon="28.9281475917"><ele>12.63</ele><time>2026-09-01T17:00:42Z</time></trkpt><trkpt lat="59.7929475736" lon="28.9284017310"><ele>12.63</ele><time>2026-09-01T17:00:53Z</time></trkpt><trkpt lat="59.7929430474" lon="28.9284440596"><ele>12.63</ele><time>2026-09-01T17:01:02Z</time></trkpt><trkpt lat="59.7929443046" lon="28.9284756593"><ele>12.63</ele><time>2026-09-01T17:01:11Z</time></trkpt><trkpt lat="59.7929543629" lon="28.9285937604"><ele>12.63</ele><time>2026-09-01T17:01:17Z</time></trkpt><trkpt lat="59.7930054087" lon="28.9288752247"><ele>13.12</ele><time>2026-09-01T17:01:32Z</time></trkpt><trkpt lat="59.7930321470" lon="28.9290357381"><ele>13.12</ele><time>2026-09-01T17:01:41Z</time></trkpt><trkpt lat="59.7930598073" lon="28.9291951619"><ele>13.12</ele><time>2026-09-01T17:01:51Z</time></trkpt><trkpt lat="59.7930608131" lon="28.9292146917"><ele>13.60</ele><time>2026-09-01T17:02:01Z</time></trkpt><trkpt lat="59.7930566221" lon="28.9292113390"><ele>13.60</ele><time>2026-09-01T17:02:14Z</time></trkpt><trkpt lat="59.7930598073" lon="28.9293061383"><ele>13.60</ele><time>2026-09-01T17:02:22Z</time></trkpt><trkpt lat="59.7930209152" lon="28.9293495566"><ele>13.60</ele><time>2026-09-01T17:02:29Z</time></trkpt><trkpt lat="59.7930244356" lon="28.9293450303"><ele>13.60</ele><time>2026-09-01T17:02:50Z</time></trkpt><trkpt lat="59.7930253576" lon="28.9293417614"><ele>13.60</ele><time>2026-09-01T17:03:10Z</time></trkpt><trkpt lat="59.7930188198" lon="28.9293633029"><ele>13.60</ele><time>2026-09-01T17:03:24Z</time></trkpt><trkpt lat="59.7930184845" lon="28.9293611236"><ele>13.60</ele><time>2026-09-01T17:03:34Z</time></trkpt><trkpt lat="59.7930173110" lon="28.9293647278"><ele>13.60</ele><time>2026-09-01T17:03:45Z</time></trkpt><trkpt lat="59.7930175625" lon="28.9293620456"><ele>12.63</ele><time>2026-09-01T17:04:02Z</time></trkpt><trkpt lat="59.7930141259" lon="28.9293749537"><ele>12.63</ele><time>2026-09-01T17:04:22Z</time></trkpt><trkpt lat="59.7930124495" lon="28.9293803181"><ele>12.63</ele><time>2026-09-01T17:04:33Z</time></trkpt><trkpt lat="59.7930106893" lon="28.9293721039"><ele>13.60</ele><time>2026-09-01T17:04:37Z</time></trkpt><trkpt lat="59.7930156346" lon="28.9293625485"><ele>13.60</ele><time>2026-09-01T17:04:56Z</time></trkpt></trkseg></trk></gpx>